createdAt,value
2022-11-05T00:02:25.418Z,100.00
2022-11-05T00:07:50.769Z,100.00
2022-11-05T00:13:21.234Z,100.00
2022-11-05T00:18:24.274Z,100.00
2022-11-05T00:23:46.545Z,100.00
2022-11-05T00:28:49.262Z,100.00
2022-11-05T00:33:52.020Z,100.00
2022-11-05T00:38:56.088Z,100.00
2022-11-05T00:44:16.560Z,100.00
2022-11-05T00:49:31.178Z,100.00
2022-11-05T00:54:35.242Z,100.00
2022-11-05T00:59:37.950Z,100.00
2022-11-05T01:04:40.657Z,100.00
2022-11-05T01:09:44.719Z,100.00
2022-11-05T01:14:47.488Z,100.00
2022-11-05T01:19:51.233Z,100.00
2022-11-05T01:24:55.408Z,100.00
2022-11-05T01:29:58.138Z,100.00
2022-11-05T01:35:00.912Z,100.00
2022-11-05T01:40:05.964Z,100.00
2022-11-05T01:45:14.453Z,100.00
2022-11-05T01:50:28.113Z,100.00
2022-11-05T01:55:36.474Z,100.00
2022-11-05T02:00:41.073Z,100.00
2022-11-05T02:05:44.701Z,100.00
2022-11-05T02:10:49.544Z,100.00
2022-11-05T02:16:02.506Z,100.00
2022-11-05T02:21:27.367Z,100.00
2022-11-05T02:27:01.013Z,100.00
2022-11-05T02:32:09.709Z,100.00
2022-11-05T02:37:18.836Z,100.00
2022-11-05T02:42:31.639Z,100.00
2022-11-05T02:47:43.856Z,100.00
2022-11-05T02:52:54.629Z,100.00
2022-11-05T02:57:59.698Z,100.00
2022-11-05T03:03:05.816Z,100.00
2022-11-05T03:08:16.796Z,100.00
2022-11-05T03:13:27.259Z,100.00
2022-11-05T03:18:40.798Z,100.00
2022-11-05T03:23:48.049Z,100.00
2022-11-05T03:28:56.818Z,100.00
2022-11-05T03:34:03.949Z,100.00
2022-11-05T03:39:09.766Z,100.00
2022-11-05T03:44:16.693Z,100.00
2022-11-05T03:49:26.523Z,100.00
2022-11-05T03:54:29.959Z,100.00
2022-11-05T03:59:39.238Z,100.00
2022-11-05T04:04:43.603Z,100.00
2022-11-05T04:10:03.871Z,100.00
2022-11-05T04:15:07.868Z,100.00
2022-11-05T04:25:57.071Z,100.00
2022-11-05T04:30:59.905Z,100.00
2022-11-05T04:36:04.016Z,100.00
2022-11-05T04:41:14.593Z,100.00
2022-11-05T04:46:17.557Z,100.00
2022-11-05T04:51:22.842Z,100.00
2022-11-05T04:56:26.540Z,100.00
2022-11-05T05:01:29.515Z,100.00
2022-11-05T05:06:33.648Z,100.00
2022-11-05T05:11:36.591Z,100.00
2022-11-05T05:16:39.683Z,100.00
2022-11-05T05:21:43.746Z,100.00
2022-11-05T05:26:49.077Z,100.00
2022-11-05T05:31:51.896Z,100.00
2022-11-05T05:36:55.979Z,100.00
2022-11-05T05:41:58.685Z,100.00
2022-11-05T05:47:01.465Z,100.00
2022-11-05T05:52:06.149Z,100.00
2022-11-05T05:57:08.869Z,100.00
2022-11-05T06:02:12.567Z,100.00
2022-11-05T06:07:16.782Z,100.00
2022-11-05T06:12:19.589Z,100.00
2022-11-05T06:17:22.689Z,100.00
2022-11-05T06:22:26.775Z,100.00
2022-11-05T06:27:29.706Z,100.00
2022-11-05T06:32:32.768Z,100.00
2022-11-05T06:37:36.915Z,100.00
2022-11-05T06:42:42.326Z,100.00
2022-11-05T06:47:45.028Z,100.00
2022-11-05T06:52:55.635Z,100.00
2022-11-05T06:57:58.691Z,100.00
2022-11-05T07:03:05.196Z,100.00
2022-11-05T07:08:09.350Z,100.00
2022-11-05T07:13:13.024Z,100.00
2022-11-05T07:18:16.593Z,100.00
2022-11-05T07:23:20.749Z,100.00
2022-11-05T07:28:23.636Z,100.00
2022-11-05T07:33:26.345Z,100.00
2022-11-05T07:38:30.634Z,100.00
2022-11-05T07:43:33.363Z,100.00
2022-11-05T07:48:37.284Z,100.00
2022-11-05T07:53:45.294Z,100.00
2022-11-05T07:58:48.415Z,100.00
2022-11-05T08:03:51.163Z,100.00
2022-11-05T08:08:55.236Z,100.00
2022-11-05T08:13:57.967Z,100.00
2022-11-05T08:19:00.756Z,100.00
2022-11-05T08:24:05.264Z,100.00
2022-11-05T08:29:07.998Z,100.00
2022-11-05T08:34:10.693Z,100.00
2022-11-05T08:39:17.082Z,100.00
2022-11-05T08:44:19.971Z,100.00
2022-11-05T08:49:22.856Z,100.00
2022-11-05T08:54:27.698Z,100.00
2022-11-05T08:59:31.385Z,100.00
2022-11-05T09:04:34.153Z,100.00
2022-11-05T09:09:38.265Z,100.00
2022-11-05T09:14:41.087Z,100.00
2022-11-05T09:19:43.956Z,100.00
2022-11-05T09:24:48.113Z,100.00
2022-11-05T09:29:50.824Z,100.00
2022-11-05T09:34:54.500Z,100.00
2022-11-05T09:39:58.918Z,100.00
2022-11-05T09:45:04.539Z,100.00
2022-11-05T09:50:10.624Z,100.00
2022-11-05T09:55:24.561Z,100.00
2022-11-05T10:00:27.903Z,100.00
2022-11-05T10:05:33.801Z,100.00
2022-11-05T10:10:43.099Z,100.00
2022-11-05T10:15:54.988Z,100.00
2022-11-05T10:20:58.608Z,100.00
2022-11-05T10:26:05.557Z,100.00
2022-11-05T10:31:11.310Z,100.00
2022-11-05T10:36:29.693Z,100.00
2022-11-05T10:41:45.663Z,100.00
2022-11-05T10:46:59.403Z,100.00
2022-11-05T10:52:13.126Z,100.00
2022-11-05T10:57:31.872Z,100.00
2022-11-05T11:02:36.753Z,100.00
2022-11-05T11:07:39.623Z,98.61
2022-11-05T11:12:44.379Z,94.37
2022-11-05T11:17:47.662Z,91.66
2022-11-05T11:23:05.306Z,87.82
2022-11-05T11:28:18.943Z,86.07
2022-11-05T11:33:28.205Z,89.77
2022-11-05T11:38:32.516Z,88.09
2022-11-05T11:43:39.929Z,88.83
2022-11-05T11:48:43.292Z,90.82
2022-11-05T11:53:49.219Z,92.07
2022-11-05T11:58:54.911Z,93.81
2022-11-05T12:04:04.719Z,94.91
2022-11-05T12:09:18.313Z,93.72
2022-11-05T12:14:40.210Z,97.30
2022-11-05T12:20:12.446Z,97.96
2022-11-05T12:25:22.636Z,96.97
2022-11-05T12:30:27.618Z,97.79
2022-11-05T12:35:57.795Z,96.57
2022-11-05T12:41:20.919Z,95.18
2022-11-05T12:46:35.217Z,92.10
2022-11-05T12:51:50.576Z,94.38
2022-11-05T12:56:57.632Z,89.92
2022-11-05T13:02:08.104Z,93.70
2022-11-05T13:07:15.106Z,94.13
2022-11-05T13:12:22.762Z,94.36
2022-11-05T13:17:30.562Z,95.35
2022-11-05T13:22:40.469Z,96.39
2022-11-05T13:27:54.636Z,97.96
2022-11-05T13:33:02.467Z,95.35
2022-11-05T13:38:27.324Z,92.73
2022-11-05T13:43:57.356Z,90.94
2022-11-05T13:49:17.554Z,91.02
2022-11-05T13:55:00.166Z,90.44
2022-11-05T14:00:11.387Z,93.64
2022-11-05T14:05:26.375Z,94.69
2022-11-05T14:10:35.928Z,97.57
2022-11-05T14:15:38.798Z,98.68
2022-11-05T14:20:59.496Z,98.30
2022-11-05T14:26:15.984Z,97.70
2022-11-05T14:32:09.906Z,95.79
2022-11-05T14:37:23.153Z,95.85
2022-11-05T14:42:28.867Z,97.04
2022-11-05T14:47:34.435Z,96.60
2022-11-05T14:52:41.392Z,97.63
2022-11-05T14:58:06.438Z,98.68
2022-11-05T15:03:32.580Z,98.70
2022-11-05T15:08:56.257Z,100.00
2022-11-05T15:14:05.650Z,99.42
2022-11-05T15:19:18.753Z,100.00
2022-11-05T15:24:23.311Z,100.00
2022-11-05T15:29:30.335Z,100.00
2022-11-05T15:34:35.558Z,100.00
2022-11-05T15:39:43.039Z,100.00
2022-11-05T15:44:47.273Z,100.00
2022-11-05T15:49:52.927Z,100.00
2022-11-05T15:55:18.576Z,100.00
2022-11-05T16:00:24.165Z,100.00
2022-11-05T16:05:29.290Z,100.00
2022-11-05T16:10:35.547Z,100.00
2022-11-05T16:15:38.301Z,100.00
2022-11-05T16:20:41.181Z,100.00
2022-11-05T16:25:47.166Z,100.00
2022-11-05T16:30:55.338Z,100.00
2022-11-05T16:35:58.336Z,100.00
2022-11-05T16:41:02.896Z,100.00
2022-11-05T16:46:05.955Z,100.00
2022-11-05T16:51:10.297Z,100.00
2022-11-05T16:56:18.162Z,100.00
2022-11-05T17:01:23.659Z,100.00
2022-11-05T17:06:26.426Z,100.00
2022-11-05T17:11:30.688Z,100.00
2022-11-05T17:16:33.451Z,100.00
2022-11-05T17:21:36.623Z,100.00
2022-11-05T17:26:40.944Z,100.00
2022-11-05T17:31:43.781Z,100.00
2022-11-05T17:36:49.136Z,100.00
2022-11-05T17:41:55.975Z,100.00
2022-11-05T17:46:58.712Z,100.00
2022-11-05T17:52:01.617Z,100.00
2022-11-05T17:57:07.173Z,100.00
2022-11-05T18:02:12.001Z,100.00
2022-11-05T18:07:15.151Z,100.00
2022-11-05T18:12:19.336Z,100.00
2022-11-05T18:17:22.357Z,100.00
2022-11-05T18:22:26.590Z,100.00
2022-11-05T18:27:30.763Z,100.00
2022-11-05T18:32:34.013Z,100.00
2022-11-05T18:37:38.714Z,100.00
2022-11-05T18:42:43.049Z,100.00
2022-11-05T18:47:45.753Z,100.00
2022-11-05T18:52:48.458Z,100.00
2022-11-05T18:57:53.462Z,100.00
2022-11-05T19:02:56.652Z,100.00
2022-11-05T19:07:59.733Z,100.00
2022-11-05T19:13:03.972Z,100.00
2022-11-05T19:18:06.990Z,100.00
2022-11-05T19:23:10.093Z,100.00
2022-11-05T19:28:14.490Z,100.00
2022-11-05T19:33:17.711Z,100.00
2022-11-05T19:38:20.409Z,100.00
2022-11-05T19:43:24.622Z,100.00
2022-11-05T19:48:29.217Z,100.00
2022-11-05T19:53:31.938Z,100.00
2022-11-05T19:58:36.368Z,100.00
2022-11-05T20:03:40.326Z,100.00
2022-11-05T20:09:07.026Z,100.00
2022-11-05T20:14:10.907Z,100.00
2022-11-05T20:19:16.583Z,100.00
2022-11-05T20:24:25.149Z,100.00
2022-11-05T20:29:35.231Z,100.00
2022-11-05T20:34:39.164Z,100.00
2022-11-05T20:39:42.168Z,100.00
2022-11-05T20:44:46.233Z,100.00
2022-11-05T20:49:48.981Z,100.00
2022-11-05T20:54:51.900Z,100.00
2022-11-05T20:59:56.086Z,100.00
2022-11-05T21:04:58.840Z,100.00
2022-11-05T21:10:02.305Z,100.00
2022-11-05T21:15:08.478Z,100.00
2022-11-05T21:20:11.641Z,100.00
2022-11-05T21:25:17.861Z,100.00
2022-11-05T21:30:22.426Z,100.00
2022-11-05T21:35:25.310Z,100.00
2022-11-05T21:40:34.540Z,100.00
2022-11-05T21:45:40.737Z,100.00
2022-11-05T21:50:57.615Z,100.00
2022-11-05T21:56:26.163Z,100.00
2022-11-05T22:01:31.396Z,100.00
2022-11-05T22:06:34.609Z,100.00
2022-11-05T22:11:37.815Z,100.00
2022-11-05T22:16:41.944Z,100.00
2022-11-05T22:21:45.700Z,100.00
2022-11-05T22:26:48.617Z,100.00
2022-11-05T22:31:52.830Z,100.00
2022-11-05T22:36:55.856Z,100.00
2022-11-05T22:42:02.034Z,100.00
2022-11-05T22:47:09.774Z,100.00
2022-11-05T22:52:13.366Z,100.00
2022-11-05T22:57:16.395Z,100.00
2022-11-05T23:02:20.695Z,100.00
2022-11-05T23:07:41.306Z,100.00
2022-11-05T23:12:44.605Z,100.00
2022-11-05T23:18:06.245Z,100.00
2022-11-05T23:23:37.349Z,100.00
2022-11-05T23:28:40.062Z,100.00
2022-11-05T23:33:46.647Z,100.00
2022-11-05T23:38:49.393Z,100.00
2022-11-05T23:44:09.678Z,100.00
2022-11-05T23:49:14.071Z,100.00
2022-11-05T23:54:16.841Z,100.00
2022-11-05T23:59:19.553Z,100.00
